Time;durP1;ratioP1;P1;durP2;ratioP2;P2;SDS_P1;SDS_P2;PMS_P1;PMS_P2;Temp;Humidity;BMP_temperature;BMP_pressure;BME280_temperature;BME280_humidity;BME280_pressure;Samples;Min_cycle;Max_cycle;Signal;HPM_P1;HPM_P2
2021/01/25 00:01:06;;;;;;;4.90;4.43;;;2.60;97.10;;;;;;5070013;28;20224;-52
2021/01/25 00:03:32;;;;;;;5.57;4.45;;;2.50;97.20;;;;;;5065813;28;20217;-52
2021/01/25 00:05:58;;;;;;;5.10;4.65;;;2.50;97.40;;;;;;5058323;28;20264;-52
2021/01/25 00:08:24;;;;;;;5.13;4.30;;;2.20;96.90;;;;;;5066671;28;20193;-52
2021/01/25 00:10:50;;;;;;;6.90;4.70;;;2.80;97.00;;;;;;5069928;28;20201;-52
2021/01/25 00:13:15;;;;;;;4.87;3.67;;;3.00;97.20;;;;;;5066121;28;20554;-52
2021/01/25 00:15:41;;;;;;;4.43;3.70;;;3.00;95.90;;;;;;5062080;28;20206;-52
2021/01/25 00:18:07;;;;;;;4.93;3.80;;;3.00;95.70;;;;;;5066403;28;20187;-52
2021/01/25 00:20:32;;;;;;;5.00;3.63;;;3.10;95.20;;;;;;5066488;28;20193;-52
2021/01/25 00:22:58;;;;;;;3.63;3.33;;;3.00;94.50;;;;;;5066156;28;20661;-52
2021/01/25 00:25:24;;;;;;;4.80;3.50;;;3.00;94.10;;;;;;5056085;28;20648;-52
2021/01/25 00:27:49;;;;;;;4.00;3.60;;;3.20;94.20;;;;;;5074433;28;20243;-52
2021/01/25 00:30:17;;;;;;;6.07;3.70;;;3.20;94.10;;;;;;5069644;28;20427;-52
2021/01/25 00:32:45;;;;;;;2.75;2.50;;;3.10;93.80;;;;;;5067834;28;20197;-52
2021/01/25 00:35:11;;;;;;;4.18;3.70;;;2.50;93.60;;;;;;5066293;28;20189;-52
2021/01/25 00:37:37;;;;;;;4.68;3.38;;;2.70;94.10;;;;;;5068715;28;20227;-52
2021/01/25 00:40:05;;;;;;;5.35;3.33;;;2.60;94.30;;;;;;5069163;28;20209;-52
2021/01/25 00:42:30;;;;;;;3.65;3.35;;;2.70;94.60;;;;;;5060781;28;20213;-53
2021/01/25 00:44:56;;;;;;;4.77;3.07;;;2.70;94.00;;;;;;5064818;28;20233;-53
2021/01/25 00:47:21;;;;;;;12.20;3.27;;;3.00;94.40;;;;;;5066480;28;20185;-52
2021/01/25 00:49:47;;;;;;;3.97;3.30;;;2.70;94.70;;;;;;5070498;28;20185;-52
2021/01/25 00:52:13;;;;;;;5.83;3.60;;;2.50;95.70;;;;;;5069008;28;20717;-52
2021/01/25 00:54:38;;;;;;;4.87;3.67;;;2.60;96.20;;;;;;5069239;28;20284;-52
2021/01/25 00:57:05;;;;;;;4.50;3.63;;;2.80;95.90;;;;;;5051699;28;20196;-52
2021/01/25 00:59:30;;;;;;;5.15;4.28;;;2.70;95.50;;;;;;5064082;28;20268;-52
2021/01/25 01:01:56;;;;;;;4.20;3.80;;;2.70;95.50;;;;;;5064281;28;20429;-52
2021/01/25 01:04:22;;;;;;;3.90;3.13;;;2.70;95.80;;;;;;5064793;28;20722;-52
2021/01/25 01:06:47;;;;;;;5.10;3.97;;;2.60;95.40;;;;;;5059882;28;20246;-52
2021/01/25 01:09:13;;;;;;;5.03;4.00;;;2.70;95.80;;;;;;5060927;28;20196;-52
2021/01/25 01:11:39;;;;;;;8.97;4.60;;;3.10;96.10;;;;;;5069400;28;20183;-52
2021/01/25 01:14:05;;;;;;;5.27;3.97;;;2.60;95.90;;;;;;5062536;28;20216;-52
2021/01/25 01:16:30;;;;;;;10.13;4.20;;;2.70;96.40;;;;;;5068283;28;20185;-52
2021/01/25 01:18:56;;;;;;;4.00;3.70;;;2.60;96.30;;;;;;5068867;28;20525;-52
2021/01/25 01:21:22;;;;;;;4.07;3.67;;;2.70;96.00;;;;;;5069980;28;20192;-52
2021/01/25 01:23:47;;;;;;;6.80;4.30;;;2.60;96.30;;;;;;5083176;28;20211;-52
2021/01/25 01:26:13;;;;;;;4.37;3.60;;;2.80;96.50;;;;;;5080498;28;20668;-52
2021/01/25 01:28:39;;;;;;;4.10;3.70;;;2.90;96.40;;;;;;5067873;28;20185;-52
2021/01/25 01:31:04;;;;;;;4.40;3.90;;;2.80;96.20;;;;;;5068844;28;20567;-52
2021/01/25 01:33:30;;;;;;;3.80;3.43;;;3.00;96.20;;;;;;5085172;28;20208;-52
2021/01/25 01:35:55;;;;;;;4.53;4.10;;;2.90;95.70;;;;;;5077482;28;20195;-52
2021/01/25 01:38:21;;;;;;;4.80;3.77;;;3.00;95.90;;;;;;5055844;28;20200;-52
2021/01/25 01:40:47;;;;;;;4.87;4.37;;;2.90;96.10;;;;;;5065987;28;20193;-52
2021/01/25 01:43:13;;;;;;;5.73;5.13;;;2.80;96.20;;;;;;5058409;28;20563;-52
2021/01/25 01:45:38;;;;;;;4.97;4.17;;;2.60;96.50;;;;;;5064654;28;20185;-52
2021/01/25 01:48:05;;;;;;;4.77;3.80;;;2.30;96.50;;;;;;5068185;28;20181;-52
2021/01/25 01:50:31;;;;;;;5.30;3.92;;;2.00;96.80;;;;;;5066968;28;20188;-52
2021/01/25 01:52:57;;;;;;;6.70;4.47;;;2.60;97.00;;;;;;5064417;28;20288;-52
2021/01/25 01:55:23;;;;;;;4.87;4.27;;;2.50;97.00;;;;;;5075312;28;20181;-52
2021/01/25 01:57:52;;;;;;;5.05;4.20;;;2.30;97.00;;;;;;5062085;28;20443;-52
2021/01/25 02:00:18;;;;;;;5.43;4.60;;;2.70;96.90;;;;;;5066354;28;20182;-54
2021/01/25 02:02:45;;;;;;;6.18;4.30;;;2.80;97.40;;;;;;5059383;28;20221;-52
2021/01/25 02:05:12;;;;;;;4.30;3.90;;;2.60;97.10;;;;;;5066786;28;20220;-52
2021/01/25 02:07:40;;;;;;;5.05;3.80;;;2.80;97.20;;;;;;5070596;28;20188;-52
2021/01/25 02:10:07;;;;;;;7.85;4.85;;;2.70;96.80;;;;;;5078536;28;20189;-52
2021/01/25 02:12:33;;;;;;;4.90;4.40;;;2.60;96.80;;;;;;5065025;28;20181;-52
2021/01/25 02:15:00;;;;;;;5.88;4.65;;;2.70;97.00;;;;;;5068855;28;20181;-52
2021/01/25 02:17:26;;;;;;;4.45;4.00;;;2.60;97.20;;;;;;5064643;28;20184;-52
2021/01/25 02:19:58;;;;;;;4.60;4.20;;;2.60;97.30;;;;;;5064666;28;20561;-52
2021/01/25 02:22:47;;;;;;;6.20;4.60;;;2.30;97.00;;;;;;5058868;28;20445;-52
2021/01/25 02:25:41;;;;;;;5.70;4.78;;;2.50;97.30;;;;;;5087794;28;20212;-52
2021/01/25 02:28:07;;;;;;;6.35;5.75;;;2.60;97.50;;;;;;5057368;28;20196;-52
2021/01/25 02:30:34;;;;;;;6.90;4.83;;;2.60;97.80;;;;;;5067513;28;20188;-52
2021/01/25 02:33:00;;;;;;;4.70;4.20;;;2.60;97.80;;;;;;5076582;28;20211;-52
2021/01/25 02:35:28;;;;;;;6.60;4.40;;;2.60;98.00;;;;;;5066720;28;20204;-52
2021/01/25 02:37:56;;;;;;;4.35;3.95;;;2.50;98.00;;;;;;5060239;28;20243;-52
2021/01/25 02:40:24;;;;;;;4.93;4.45;;;2.80;98.00;;;;;;5058024;28;20196;-53
2021/01/25 02:42:53;;;;;;;6.50;4.22;;;2.40;98.10;;;;;;5058888;28;20213;-53
2021/01/25 02:45:21;;;;;;;5.00;4.18;;;2.50;98.80;;;;;;5054732;28;20275;-52
2021/01/25 02:47:47;;;;;;;5.57;4.45;;;2.10;98.60;;;;;;5058338;28;20254;-52
2021/01/25 02:50:13;;;;;;;6.75;4.15;;;2.40;99.00;;;;;;5066699;28;20185;-52
2021/01/25 02:52:39;;;;;;;5.20;4.80;;;2.40;99.90;;;;;;5064444;28;20652;-52
2021/01/25 02:55:05;;;;;;;6.13;4.23;;;2.40;99.90;;;;;;5066513;28;20668;-52
2021/01/25 02:57:32;;;;;;;4.97;4.53;;;2.50;99.40;;;;;;5067399;28;20189;-52
2021/01/25 03:00:00;;;;;;;4.82;4.30;;;2.40;99.40;;;;;;5067328;28;20553;-52
2021/01/25 03:02:26;;;;;;;5.53;4.88;;;2.40;99.00;;;;;;5058897;28;20197;-52
2021/01/25 03:04:52;;;;;;;4.73;4.20;;;2.60;98.90;;;;;;5070695;28;20663;-52
2021/01/25 03:07:18;;;;;;;6.25;5.05;;;2.80;98.80;;;;;;5069272;28;20444;-52
2021/01/25 03:09:49;;;;;;;5.43;4.30;;;2.60;98.20;;;;;;5071842;28;20188;-52
2021/01/25 03:12:15;;;;;;;4.95;4.55;;;3.00;98.80;;;;;;5064546;28;20512;-52
2021/01/25 03:14:45;;;;;;;6.30;4.60;;;2.80;98.80;;;;;;5066809;28;20292;-52
2021/01/25 03:17:11;;;;;;;5.72;5.13;;;2.70;99.40;;;;;;5072961;28;20189;-52
2021/01/25 03:19:37;;;;;;;7.50;5.55;;;2.60;99.90;;;;;;5074525;28;20716;-53
2021/01/25 03:22:03;;;;;;;5.93;4.83;;;2.80;99.90;;;;;;5086240;28;20201;-52
2021/01/25 03:24:28;;;;;;;6.77;5.77;;;2.50;99.90;;;;;;5091042;28;20265;-52
2021/01/25 03:26:54;;;;;;;6.53;5.37;;;2.50;99.90;;;;;;5069958;28;20189;-51
2021/01/25 03:29:19;;;;;;;6.77;6.07;;;2.60;99.90;;;;;;5070537;28;20191;-51
2021/01/25 03:31:45;;;;;;;5.77;5.27;;;2.50;99.90;;;;;;5064695;28;20185;-50
2021/01/25 03:34:11;;;;;;;8.60;5.93;;;2.30;99.90;;;;;;5070449;28;20653;-51
2021/01/25 03:36:37;;;;;;;8.00;5.90;;;1.90;99.90;;;;;;5057593;28;20200;-51
2021/01/25 03:39:05;;;;;;;8.93;6.32;;;2.00;99.90;;;;;;5055328;28;20440;-51
2021/01/25 03:41:31;;;;;;;8.50;6.60;;;1.90;99.90;;;;;;5064599;28;20948;-51
2021/01/25 03:43:56;;;;;;;7.47;5.53;;;2.10;99.90;;;;;;5060171;28;20219;-51
2021/01/25 03:46:22;;;;;;;8.70;6.67;;;1.70;99.90;;;;;;5064430;28;20655;-51
2021/01/25 03:48:48;;;;;;;7.37;6.63;;;1.40;99.90;;;;;;5070338;28;20663;-53
2021/01/25 03:51:14;;;;;;;7.50;6.57;;;2.00;99.90;;;;;;5061823;28;20967;-53
2021/01/25 03:53:40;;;;;;;8.93;7.20;;;1.70;99.90;;;;;;5059111;28;20470;-51
2021/01/25 03:56:06;;;;;;;9.07;7.05;;;1.60;99.90;;;;;;5086588;28;20461;-51
2021/01/25 03:58:31;;;;;;;11.47;7.53;;;1.70;99.90;;;;;;5065084;28;20562;-51
2021/01/25 04:00:57;;;;;;;8.83;7.93;;;1.50;99.90;;;;;;5078726;28;20237;-51
2021/01/25 04:03:26;;;;;;;10.10;7.00;;;1.70;99.90;;;;;;5076057;28;20296;-51
2021/01/25 04:05:51;;;;;;;7.95;6.35;;;1.50;99.90;;;;;;5076502;28;20181;-51
2021/01/25 04:08:17;;;;;;;8.10;6.80;;;1.70;99.90;;;;;;5074230;28;20534;-51
2021/01/25 04:10:43;;;;;;;8.23;7.40;;;1.40;99.90;;;;;;5061735;28;20185;-51
2021/01/25 04:13:08;;;;;;;8.00;7.30;;;1.60;99.90;;;;;;5065764;28;20212;-51
2021/01/25 04:15:34;;;;;;;8.13;7.03;;;1.50;99.90;;;;;;5060990;28;20580;-51
2021/01/25 04:18:00;;;;;;;9.43;7.97;;;1.50;99.90;;;;;;5068754;28;20558;-51
2021/01/25 04:20:26;;;;;;;10.13;8.63;;;1.60;99.90;;;;;;5067613;28;20545;-51
2021/01/25 04:22:51;;;;;;;9.43;6.60;;;1.70;99.90;;;;;;5069324;28;20211;-51
2021/01/25 04:25:17;;;;;;;8.70;7.80;;;1.50;99.90;;;;;;5069558;28;20212;-51
2021/01/25 04:27:43;;;;;;;9.27;7.70;;;1.50;99.90;;;;;;5059184;28;20192;-51
2021/01/25 04:30:11;;;;;;;9.30;7.50;;;1.60;99.90;;;;;;5069407;28;20481;-51
2021/01/25 04:32:38;;;;;;;10.63;8.32;;;1.70;99.90;;;;;;5061133;28;20192;-51
2021/01/25 04:35:09;;;;;;;10.55;9.38;;;1.60;99.90;;;;;;5073165;28;20208;-51
2021/01/25 04:37:37;;;;;;;8.75;7.82;;;1.70;99.90;;;;;;5069101;28;20656;-51
2021/01/25 04:40:04;;;;;;;9.88;7.93;;;1.80;99.90;;;;;;5064407;28;20658;-51
2021/01/25 04:42:35;;;;;;;9.52;8.45;;;1.60;99.90;;;;;;5066884;28;20189;-51
2021/01/25 04:45:02;;;;;;;8.45;7.55;;;1.40;99.90;;;;;;5055517;28;20220;-51
2021/01/25 04:47:28;;;;;;;8.77;7.88;;;1.70;99.90;;;;;;5067268;28;20652;-51
2021/01/25 04:49:54;;;;;;;10.90;7.67;;;1.60;99.90;;;;;;5073200;28;20215;-51
2021/01/25 04:52:20;;;;;;;9.48;8.05;;;2.00;99.90;;;;;;5076590;28;20185;-51
2021/01/25 04:54:47;;;;;;;9.13;8.07;;;1.80;99.90;;;;;;5056471;28;20208;-51
2021/01/25 04:57:16;;;;;;;9.20;8.20;;;1.80;99.90;;;;;;5063593;28;20782;-51
2021/01/25 04:59:45;;;;;;;9.52;8.50;;;1.70;99.90;;;;;;5085503;28;20189;-53
2021/01/25 05:02:12;;;;;;;8.60;7.70;;;1.80;99.90;;;;;;5069496;28;20531;-51
2021/01/25 05:04:39;;;;;;;11.93;7.80;;;1.50;99.90;;;;;;5068559;28;20205;-53
2021/01/25 05:07:04;;;;;;;8.35;7.53;;;1.60;99.90;;;;;;5068461;28;20191;-51
2021/01/25 05:09:30;;;;;;;9.10;8.17;;;1.10;99.90;;;;;;5069456;28;20189;-51
2021/01/25 05:12:01;;;;;;;9.90;8.47;;;1.60;99.90;;;;;;5064458;28;20459;-52
2021/01/25 05:14:41;;;;;;;7.72;6.97;;;1.80;99.90;;;;;;5088340;28;20589;-51
2021/01/25 05:17:11;;;;;;;7.80;7.10;;;2.00;99.90;;;;;;5066360;28;20190;-51
2021/01/25 05:19:43;;;;;;;9.32;7.85;;;2.10;99.90;;;;;;5068845;28;20223;-51
2021/01/25 05:22:13;;;;;;;8.13;7.40;;;2.20;99.90;;;;;;5064770;28;20558;-51
2021/01/25 05:24:52;;;;;;;9.23;7.80;;;2.10;99.90;;;;;;5057760;28;20244;-51
2021/01/25 05:27:26;;;;;;;8.27;7.43;;;2.00;99.90;;;;;;5061511;28;20182;-51
2021/01/25 05:29:52;;;;;;;7.43;6.63;;;1.90;99.90;;;;;;5055920;28;20189;-52
2021/01/25 05:32:19;;;;;;;7.50;6.80;;;2.00;99.90;;;;;;5065474;28;20184;-52
2021/01/25 05:34:48;;;;;;;7.00;6.30;;;1.60;99.90;;;;;;5058369;28;20382;-52
2021/01/25 05:37:18;;;;;;;7.63;6.65;;;2.40;99.90;;;;;;5064136;28;20664;-52
2021/01/25 05:39:47;;;;;;;7.60;6.80;;;2.10;99.90;;;;;;5050705;28;20193;-51
2021/01/25 05:42:14;;;;;;;8.32;7.05;;;2.10;99.90;;;;;;5061313;28;20187;-51
2021/01/25 05:44:41;;;;;;;9.60;7.28;;;1.90;99.90;;;;;;5059161;28;20265;-51
2021/01/25 05:47:10;;;;;;;7.90;6.85;;;2.00;99.90;;;;;;5067920;28;20181;-52
2021/01/25 05:49:39;;;;;;;14.75;8.05;;;1.80;99.90;;;;;;5055728;28;20276;-51
2021/01/25 05:52:05;;;;;;;9.13;7.80;;;2.00;99.90;;;;;;5066130;28;20181;-53
2021/01/25 05:54:31;;;;;;;10.38;7.97;;;1.90;99.90;;;;;;5063142;28;20216;-51
2021/01/25 05:56:57;;;;;;;10.67;8.73;;;2.10;99.90;;;;;;5067175;28;20185;-51
2021/01/25 05:59:22;;;;;;;10.40;7.60;;;1.80;99.90;;;;;;5069384;28;20207;-52
2021/01/25 06:01:48;;;;;;;10.30;7.73;;;2.20;99.90;;;;;;5070945;28;20548;-51
2021/01/25 06:04:18;;;;;;;7.70;6.80;;;1.90;99.90;;;;;;5084150;28;20291;-51
2021/01/25 06:06:53;;;;;;;9.65;8.65;;;2.00;99.90;;;;;;5077163;28;20220;-52
2021/01/25 06:09:29;;;;;;;10.20;8.20;;;2.00;99.90;;;;;;5088126;28;20183;-51
2021/01/25 06:12:01;;;;;;;10.23;9.20;;;2.00;99.90;;;;;;5082191;28;20252;-52
2021/01/25 06:14:37;;;;;;;9.57;8.57;;;1.80;99.90;;;;;;5067300;28;20221;-51
2021/01/25 06:17:02;;;;;;;10.02;7.53;;;2.10;99.90;;;;;;5062272;28;20177;-53
2021/01/25 06:19:30;;;;;;;13.93;8.50;;;2.00;99.90;;;;;;5061432;28;20350;-55
2021/01/25 06:21:57;;;;;;;10.32;7.50;;;2.00;99.90;;;;;;5073568;28;20529;-54
2021/01/25 06:24:25;;;;;;;11.73;7.57;;;1.80;99.90;;;;;;5066322;28;20209;-54
2021/01/25 06:26:54;;;;;;;9.20;8.30;;;2.20;99.90;;;;;;5080084;28;20189;-54
2021/01/25 06:29:20;;;;;;;8.60;7.75;;;2.00;99.90;;;;;;5067349;28;20265;-53
2021/01/25 06:31:54;;;;;;;8.02;7.22;;;2.20;99.90;;;;;;5067696;28;20205;-53
2021/01/25 06:34:22;;;;;;;7.55;6.78;;;2.30;99.90;;;;;;5065578;28;20201;-53
2021/01/25 06:36:51;;;;;;;9.45;7.50;;;2.40;99.90;;;;;;5069797;28;20538;-51
2021/01/25 06:39:25;;;;;;;9.18;7.50;;;1.70;99.90;;;;;;5067154;28;20203;-52
2021/01/25 06:42:03;;;;;;;10.27;7.40;;;2.00;99.90;;;;;;5066686;28;20651;-52
2021/01/25 06:44:30;;;;;;;8.15;6.95;;;2.10;99.90;;;;;;5071230;28;20247;-53
2021/01/25 06:47:01;;;;;;;11.25;7.60;;;1.50;99.90;;;;;;5065758;28;20280;-54
2021/01/25 06:49:29;;;;;;;15.27;7.93;;;2.00;99.90;;;;;;5074036;28;20552;-53
2021/01/25 06:51:55;;;;;;;11.15;8.20;;;2.10;99.90;;;;;;5087100;28;20227;-53
2021/01/25 06:54:25;;;;;;;14.55;8.93;;;2.00;99.90;;;;;;5079600;28;20520;-54
2021/01/25 06:56:53;;;;;;;13.45;8.18;;;2.50;99.90;;;;;;5065847;28;20307;-53
2021/01/25 06:59:23;;;;;;;9.52;7.82;;;2.10;99.90;;;;;;5068896;28;20177;-53
2021/01/25 07:01:51;;;;;;;7.22;6.57;;;2.00;99.90;;;;;;5066676;28;20200;-54
2021/01/25 07:04:28;;;;;;;9.40;6.72;;;2.00;99.90;;;;;;5089422;28;20207;-53
2021/01/25 07:06:55;;;;;;;9.18;7.50;;;1.80;99.90;;;;;;5060248;28;20185;-47
2021/01/25 07:09:30;;;;;;;9.63;7.78;;;2.00;99.90;;;;;;5076540;28;20185;-52
2021/01/25 07:11:58;;;;;;;12.00;8.43;;;2.00;99.90;;;;;;5069768;28;20181;-51
2021/01/25 07:14:26;;;;;;;13.48;7.40;;;2.10;99.90;;;;;;5068951;28;20581;-51
2021/01/25 07:16:53;;;;;;;10.05;7.93;;;2.00;99.90;;;;;;5069679;28;20189;-50
2021/01/25 07:19:20;;;;;;;10.85;7.35;;;2.10;99.90;;;;;;5057636;28;20188;-51
2021/01/25 07:21:48;;;;;;;12.40;6.80;;;2.10;99.90;;;;;;5070206;28;20306;-53
2021/01/25 07:24:21;;;;;;;14.13;8.15;;;1.90;99.90;;;;;;5070065;28;20698;-53
2021/01/25 07:26:55;;;;;;;7.70;6.40;;;2.00;99.90;;;;;;5066262;28;20177;-53
2021/01/25 07:29:22;;;;;;;10.23;8.10;;;1.90;99.90;;;;;;5060518;28;20199;-53
2021/01/25 07:31:48;;;;;;;13.73;6.95;;;2.00;99.90;;;;;;5063029;28;20189;-53
2021/01/25 07:34:14;;;;;;;8.55;6.50;;;2.20;99.90;;;;;;5075497;28;20204;-51
2021/01/25 07:36:41;;;;;;;7.35;6.50;;;2.10;99.90;;;;;;5070187;28;20204;-51
2021/01/25 07:39:11;;;;;;;9.52;7.50;;;2.40;99.90;;;;;;5074638;28;20261;-52
2021/01/25 07:41:37;;;;;;;6.95;6.22;;;2.40;99.90;;;;;;5082264;28;20681;-51
2021/01/25 07:44:05;;;;;;;8.30;6.55;;;2.70;99.90;;;;;;5073742;28;20307;-52
2021/01/25 07:46:31;;;;;;;8.35;7.25;;;2.50;99.90;;;;;;5064811;28;20777;-52
2021/01/25 07:48:57;;;;;;;8.68;6.70;;;2.30;99.90;;;;;;5082199;28;20193;-52
2021/01/25 07:51:24;;;;;;;9.30;6.73;;;2.40;99.90;;;;;;5079071;28;20186;-53
2021/01/25 07:53:50;;;;;;;7.80;6.38;;;2.50;99.90;;;;;;5065970;28;20576;-52
2021/01/25 07:56:18;;;;;;;7.90;6.88;;;2.30;99.90;;;;;;5063980;28;20663;-53
2021/01/25 07:58:47;;;;;;;9.77;7.00;;;2.40;99.90;;;;;;5064982;28;20648;-52
2021/01/25 08:01:25;;;;;;;11.82;7.13;;;2.30;99.90;;;;;;5071659;28;20193;-51
2021/01/25 08:03:58;;;;;;;9.13;6.53;;;2.10;99.90;;;;;;5073878;28;20356;-51
2021/01/25 08:06:25;;;;;;;14.63;7.70;;;1.70;99.90;;;;;;5060486;28;20205;-51
2021/01/25 08:08:51;;;;;;;12.48;8.10;;;1.70;99.90;;;;;;5068949;28;20188;-51
2021/01/25 08:11:19;;;;;;;8.95;7.25;;;2.50;99.90;;;;;;5081178;28;20272;-51
2021/01/25 08:13:57;;;;;;;8.77;6.93;;;2.20;99.90;;;;;;5075101;28;20215;-51
2021/01/25 08:16:27;;;;;;;14.57;7.53;;;2.10;99.90;;;;;;5059118;28;20177;-51
2021/01/25 08:19:10;;;;;;;10.60;7.75;;;1.90;99.90;;;;;;5056710;28;20193;-50
2021/01/25 08:21:41;;;;;;;11.45;7.88;;;2.30;99.90;;;;;;5052924;28;20189;-51
2021/01/25 08:24:11;;;;;;;13.55;8.98;;;2.50;99.90;;;;;;5056326;28;20379;-52
2021/01/25 08:26:37;;;;;;;14.80;8.48;;;2.30;99.90;;;;;;5057476;28;20185;-53
2021/01/25 08:29:07;;;;;;;16.58;9.48;;;2.20;99.90;;;;;;5068013;28;20185;-52
2021/01/25 08:31:42;;;;;;;13.70;9.35;;;2.40;99.90;;;;;;5070206;28;20182;-52
2021/01/25 08:34:28;;;;;;;12.00;8.90;;;2.60;99.90;;;;;;5069357;28;20207;-52
2021/01/25 08:37:10;;;;;;;11.82;8.02;;;2.30;99.90;;;;;;5073277;28;20195;-52
2021/01/25 08:39:41;;;;;;;12.60;8.30;;;2.50;99.90;;;;;;5080738;28;20181;-52
2021/01/25 08:42:14;;;;;;;11.73;7.47;;;1.70;99.90;;;;;;5060229;28;20196;-53
2021/01/25 08:44:54;;;;;;;11.07;8.50;;;2.50;99.90;;;;;;5080993;28;20228;-54
2021/01/25 08:47:29;;;;;;;10.85;7.43;;;2.50;99.90;;;;;;5065504;28;20725;-53
2021/01/25 08:49:55;;;;;;;11.68;8.60;;;2.70;99.90;;;;;;5070575;28;20188;-53
2021/01/25 08:52:39;;;;;;;10.60;8.00;;;2.60;99.90;;;;;;5076552;28;20515;-54
2021/01/25 08:55:21;;;;;;;11.25;8.77;;;2.50;99.90;;;;;;5064679;28;20506;-50
2021/01/25 08:57:47;;;;;;;12.43;8.88;;;2.50;99.90;;;;;;5077433;28;20184;-51
2021/01/25 09:00:16;;;;;;;10.70;7.87;;;2.60;99.90;;;;;;5072748;28;20181;-55
2021/01/25 09:02:43;;;;;;;14.50;8.65;;;2.70;99.90;;;;;;5073374;28;20238;-53
2021/01/25 09:05:10;;;;;;;8.30;7.22;;;2.70;99.90;;;;;;5066836;28;20667;-53
2021/01/25 09:07:36;;;;;;;12.95;8.15;;;2.40;99.90;;;;;;5084630;28;20219;-52
2021/01/25 09:10:03;;;;;;;11.50;8.40;;;3.10;99.90;;;;;;5086116;28;20655;-52
2021/01/25 09:12:28;;;;;;;12.95;7.20;;;2.80;99.90;;;;;;5077760;28;20655;-52
2021/01/25 09:14:54;;;;;;;12.20;7.70;;;2.90;99.90;;;;;;5067367;28;20251;-51
2021/01/25 09:17:22;;;;;;;11.93;8.20;;;2.80;99.90;;;;;;5064025;28;20663;-52
2021/01/25 09:19:47;;;;;;;9.93;8.85;;;3.10;99.90;;;;;;5064090;28;20300;-52
2021/01/25 09:22:13;;;;;;;11.00;8.70;;;3.00;99.90;;;;;;5061457;28;20286;-52
2021/01/25 09:24:40;;;;;;;10.77;7.80;;;3.20;99.90;;;;;;5065979;28;20210;-51
2021/01/25 09:27:07;;;;;;;10.68;7.95;;;3.40;99.90;;;;;;5061834;28;20184;-53
2021/01/25 09:29:32;;;;;;;13.48;8.90;;;3.40;99.90;;;;;;5059650;28;20182;-53
2021/01/25 09:31:58;;;;;;;16.97;10.70;;;3.20;99.90;;;;;;5062686;28;20212;-52
2021/01/25 09:34:24;;;;;;;13.97;9.00;;;3.20;99.90;;;;;;5063538;28;20650;-52
2021/01/25 09:36:50;;;;;;;15.80;9.20;;;3.40;99.90;;;;;;5066695;28;20245;-53
2021/01/25 09:39:17;;;;;;;10.68;8.43;;;3.70;99.90;;;;;;5062921;28;20181;-53
2021/01/25 09:41:46;;;;;;;14.32;9.05;;;3.40;99.90;;;;;;5069033;28;20611;-51
2021/01/25 09:44:12;;;;;;;11.45;8.77;;;3.20;99.90;;;;;;5068687;28;20220;-51
2021/01/25 09:46:39;;;;;;;8.13;6.97;;;3.30;99.90;;;;;;5067055;28;20181;-51
2021/01/25 09:49:04;;;;;;;10.10;7.18;;;3.20;99.90;;;;;;5064712;28;20270;-54
2021/01/25 09:51:31;;;;;;;10.70;7.80;;;3.60;99.90;;;;;;5062692;28;20264;-52
2021/01/25 09:53:56;;;;;;;9.52;6.60;;;3.50;99.90;;;;;;5065496;28;20296;-51
2021/01/25 09:56:22;;;;;;;8.10;5.80;;;3.60;99.90;;;;;;5086258;28;20841;-51
2021/01/25 09:58:47;;;;;;;6.40;5.80;;;3.60;99.90;;;;;;5081720;28;20189;-51
2021/01/25 10:01:13;;;;;;;9.77;6.20;;;3.60;99.90;;;;;;5065433;28;20551;-50
2021/01/25 10:03:39;;;;;;;6.27;5.77;;;3.70;99.90;;;;;;5061791;28;20221;-52
2021/01/25 10:06:04;;;;;;;8.83;6.00;;;3.50;99.90;;;;;;5059466;28;20182;-52
2021/01/25 10:08:30;;;;;;;8.40;6.00;;;3.80;99.90;;;;;;5066231;28;20266;-52
2021/01/25 10:10:56;;;;;;;8.67;7.77;;;3.80;99.90;;;;;;5060655;28;20438;-52
2021/01/25 10:13:23;;;;;;;19.97;12.70;;;3.70;99.90;;;;;;5063952;28;20216;-51
2021/01/25 10:15:49;;;;;;;8.05;6.30;;;3.60;99.90;;;;;;5067339;28;20921;-51
2021/01/25 10:18:14;;;;;;;6.73;5.77;;;3.90;99.90;;;;;;5058517;28;20263;-51
2021/01/25 10:20:42;;;;;;;6.10;5.50;;;4.30;99.90;;;;;;5065281;28;20707;-51
2021/01/25 10:23:08;;;;;;;5.90;5.30;;;3.80;99.90;;;;;;5070679;28;20743;-51
2021/01/25 10:25:34;;;;;;;8.10;6.45;;;4.00;99.90;;;;;;5054616;28;20554;-51
2021/01/25 10:28:01;;;;;;;14.10;6.53;;;4.10;99.90;;;;;;5061364;28;20237;-51
2021/01/25 10:30:27;;;;;;;9.10;7.40;;;4.10;99.90;;;;;;5064847;28;20269;-51
2021/01/25 10:32:53;;;;;;;10.40;8.30;;;4.20;99.90;;;;;;5056252;28;20719;-51
2021/01/25 10:35:19;;;;;;;11.77;8.20;;;4.20;99.90;;;;;;5100512;28;21034;-51
2021/01/25 10:37:45;;;;;;;9.20;8.20;;;4.30;99.90;;;;;;5062231;28;20185;-50
2021/01/25 10:40:14;;;;;;;9.38;7.53;;;4.20;99.90;;;;;;5063948;28;20195;-50
2021/01/25 10:42:40;;;;;;;7.40;6.65;;;4.80;99.90;;;;;;5073598;28;20653;-51
2021/01/25 10:45:06;;;;;;;6.40;5.00;;;5.10;99.90;;;;;;5065028;28;20217;-52
2021/01/25 10:47:32;;;;;;;6.93;5.10;;;5.00;99.90;;;;;;5060441;28;20179;-51
2021/01/25 10:49:58;;;;;;;6.20;5.60;;;4.80;99.90;;;;;;5070932;28;20268;-51
2021/01/25 10:52:23;;;;;;;7.17;5.53;;;4.70;99.90;;;;;;5056444;28;20340;-51
2021/01/25 10:54:49;;;;;;;9.93;5.87;;;4.80;99.90;;;;;;5055376;28;20260;-52
2021/01/25 10:57:15;;;;;;;7.80;6.00;;;4.80;99.90;;;;;;5067771;28;20339;-51
2021/01/25 10:59:40;;;;;;;7.57;6.30;;;4.90;99.90;;;;;;5061871;28;20256;-51
2021/01/25 11:02:06;;;;;;;12.77;5.80;;;4.60;99.90;;;;;;5062895;28;20195;-49
2021/01/25 11:04:32;;;;;;;7.40;5.57;;;4.60;99.90;;;;;;5056350;28;20221;-51
2021/01/25 11:06:58;;;;;;;6.00;5.40;;;4.90;99.90;;;;;;5066543;28;20696;-51
2021/01/25 11:09:23;;;;;;;6.77;5.20;;;5.30;99.90;;;;;;5063624;28;20489;-51
2021/01/25 11:11:50;;;;;;;5.63;4.97;;;5.30;99.90;;;;;;5062579;28;20174;-51
2021/01/25 11:14:16;;;;;;;4.82;4.28;;;5.10;99.90;;;;;;5057637;28;20233;-51
2021/01/25 11:16:43;;;;;;;6.50;4.60;;;5.20;99.90;;;;;;5058966;28;20231;-51
2021/01/25 11:19:10;;;;;;;3.50;3.30;;;5.00;99.90;;;;;;5061831;28;20191;-51
2021/01/25 11:21:35;;;;;;;3.33;3.03;;;5.10;99.90;;;;;;5066414;28;20187;-49
2021/01/25 11:24:01;;;;;;;5.03;3.63;;;5.10;99.90;;;;;;5068664;28;20736;-48
2021/01/25 11:26:28;;;;;;;6.77;3.80;;;5.60;99.90;;;;;;5072895;28;20572;-49
2021/01/25 11:28:53;;;;;;;4.47;4.00;;;5.60;99.90;;;;;;5069607;28;20240;-49
2021/01/25 11:31:19;;;;;;;4.10;3.73;;;5.80;99.90;;;;;;5069204;28;20603;-52
2021/01/25 11:33:45;;;;;;;5.20;3.70;;;5.00;99.90;;;;;;5056005;28;20230;-50
2021/01/25 11:36:13;;;;;;;5.17;4.47;;;5.20;99.90;;;;;;5067181;28;20246;-51
2021/01/25 11:38:39;;;;;;;4.35;3.53;;;5.20;99.90;;;;;;5064736;28;20188;-50
2021/01/25 11:41:05;;;;;;;4.40;3.53;;;4.60;99.90;;;;;;5066687;28;20664;-52
2021/01/25 11:43:31;;;;;;;3.93;3.50;;;5.10;99.90;;;;;;5060456;28;20205;-52
2021/01/25 11:45:57;;;;;;;4.63;3.83;;;5.30;99.90;;;;;;5065110;28;20192;-52
2021/01/25 11:48:23;;;;;;;4.25;3.60;;;5.30;99.90;;;;;;5063943;28;20349;-51
2021/01/25 11:50:49;;;;;;;5.75;3.25;;;5.50;99.90;;;;;;5065311;28;20184;-52
2021/01/25 11:53:15;;;;;;;3.03;2.73;;;5.90;99.90;;;;;;5055149;28;20216;-53
2021/01/25 11:55:41;;;;;;;4.05;3.35;;;5.50;99.90;;;;;;5066164;28;20440;-51
2021/01/25 11:58:10;;;;;;;5.37;3.87;;;5.70;99.90;;;;;;5068000;28;20820;-50
2021/01/25 12:00:36;;;;;;;4.72;3.58;;;5.30;99.90;;;;;;5068665;28;20523;-51
2021/01/25 12:03:03;;;;;;;3.50;3.20;;;5.00;99.90;;;;;;5068725;28;20290;-51
2021/01/25 12:05:29;;;;;;;3.22;2.90;;;4.50;99.90;;;;;;5069605;28;20495;-53
2021/01/25 12:07:57;;;;;;;3.80;3.17;;;5.50;99.90;;;;;;5066667;28;20191;-53
2021/01/25 12:10:22;;;;;;;3.70;3.40;;;5.30;99.90;;;;;;5057179;28;20194;-50
2021/01/25 12:12:48;;;;;;;4.20;3.00;;;5.50;99.90;;;;;;5060536;28;20217;-51
2021/01/25 12:15:14;;;;;;;2.77;2.57;;;5.90;99.90;;;;;;5070188;28;20185;-52
2021/01/25 12:17:39;;;;;;;3.13;2.83;;;6.10;99.90;;;;;;5077372;28;20683;-50
2021/01/25 12:20:06;;;;;;;3.27;2.33;;;5.90;99.90;;;;;;5050530;28;20205;-52
2021/01/25 12:22:31;;;;;;;2.22;2.00;;;5.90;99.90;;;;;;5058702;28;20238;-51
2021/01/25 12:24:57;;;;;;;4.03;2.27;;;5.80;99.90;;;;;;5067260;28;20426;-52
2021/01/25 12:27:22;;;;;;;2.57;2.37;;;5.70;99.90;;;;;;5063857;28;20667;-51
2021/01/25 12:29:48;;;;;;;6.13;2.43;;;5.40;99.90;;;;;;5074789;28;20199;-51
2021/01/25 12:32:14;;;;;;;2.40;1.87;;;5.50;99.90;;;;;;5061790;28;20184;-53
2021/01/25 12:34:40;;;;;;;2.40;2.20;;;5.60;99.90;;;;;;5058027;28;20209;-50
2021/01/25 12:37:05;;;;;;;3.63;2.33;;;5.90;99.90;;;;;;5068894;28;20196;-52
2021/01/25 12:39:31;;;;;;;2.27;2.07;;;6.00;99.90;;;;;;5064881;28;20185;-51
2021/01/25 12:41:56;;;;;;;5.80;4.00;;;6.10;99.90;;;;;;5060772;28;20347;-53
2021/01/25 12:44:25;;;;;;;1.83;1.73;;;6.10;99.90;;;;;;5068085;28;20212;-52
2021/01/25 12:46:51;;;;;;;1.70;1.42;;;6.00;99.90;;;;;;5068781;28;20229;-51
2021/01/25 12:49:19;;;;;;;1.80;1.70;;;6.20;99.90;;;;;;5072010;28;20200;-51
2021/01/25 12:51:44;;;;;;;1.60;1.50;;;6.60;99.90;;;;;;5078568;28;20192;-52
2021/01/25 12:54:11;;;;;;;2.43;1.97;;;6.40;99.90;;;;;;5057679;28;20207;-52
2021/01/25 12:56:37;;;;;;;1.00;1.00;;;6.40;99.90;;;;;;5062612;28;20431;-53